Time;durP1;ratioP1;P1;durP2;ratioP2;P2;SDS_P1;SDS_P2;PMS_P1;PMS_P2;Temp;Humidity;BMP_temperature;BMP_pressure;BME280_temperature;BME280_humidity;BME280_pressure;Samples;Min_cycle;Max_cycle;Signal;HPM_P1;HPM_P2
2023/09/22 00:02:04;;;;;;;0.52;0.52;;;;;;;18.40;77.12;98687.78;5086411;28;20397;-65
2023/09/22 00:04:30;;;;;;;2.05;1.83;;;;;;;18.25;77.76;98673.91;5086827;28;20032;-65
2023/09/22 00:06:56;;;;;;;1.73;1.38;;;;;;;18.14;78.31;98680.75;5086275;28;20028;-65
2023/09/22 00:09:21;;;;;;;6.80;2.00;;;;;;;18.18;78.02;98676.09;5086431;28;20038;-65
2023/09/22 00:11:46;;;;;;;1.65;0.98;;;;;;;18.14;78.35;98685.16;5086325;28;20032;-65
2023/09/22 00:14:12;;;;;;;2.05;1.83;;;;;;;18.09;78.77;98675.78;5085996;28;20119;-65
2023/09/22 00:16:37;;;;;;;2.35;1.83;;;;;;;18.16;78.58;98678.84;5085869;28;20020;-65
2023/09/22 00:19:05;;;;;;;3.90;1.98;;;;;;;18.20;78.38;98671.59;5085842;28;20051;-65
2023/09/22 00:21:34;;;;;;;0.60;0.40;;;;;;;18.26;78.03;98679.06;5086152;28;20048;-63
2023/09/22 00:24:02;;;;;;;0.30;0.30;;;;;;;18.45;77.53;98667.31;5067973;28;20024;-65
2023/09/22 00:26:27;;;;;;;1.90;1.10;;;;;;;18.31;77.99;98655.94;5085988;28;20025;-64
2023/09/22 00:28:53;;;;;;;2.30;1.85;;;;;;;18.24;78.49;98662.59;5085702;28;20021;-64
2023/09/22 00:31:18;;;;;;;3.63;2.40;;;;;;;18.07;79.44;98674.19;5084262;28;20070;-65
2023/09/22 00:33:43;;;;;;;3.53;2.35;;;;;;;18.09;79.42;98673.16;5085842;28;20028;-65
2023/09/22 00:36:09;;;;;;;2.60;1.33;;;;;;;18.00;80.29;98681.66;5085563;28;20051;-64
2023/09/22 00:38:34;;;;;;;1.35;1.25;;;;;;;17.97;80.34;98676.63;5085568;28;20025;-64
2023/09/22 00:40:59;;;;;;;2.67;1.35;;;;;;;17.94;80.56;98674.16;5085476;28;20078;-64
2023/09/22 00:43:25;;;;;;;0.75;0.75;;;;;;;17.92;80.70;98660.31;5085327;28;20025;-65
2023/09/22 00:45:52;;;;;;;1.25;1.05;;;;;;;17.78;81.03;98640.25;5085482;28;20021;-64
2023/09/22 00:48:23;;;;;;;1.55;1.15;;;;;;;17.90;81.29;98663.06;5083904;28;20172;-65
2023/09/22 00:50:51;;;;;;;3.33;1.42;;;;;;;17.93;81.53;98668.09;5085390;28;20362;-65
2023/09/22 00:53:17;;;;;;;2.20;2.00;;;;;;;17.81;82.20;98659.25;5085151;28;20029;-64
2023/09/22 00:55:44;;;;;;;2.53;1.88;;;;;;;17.78;82.16;98662.06;5084006;28;20028;-64
2023/09/22 00:58:10;;;;;;;2.13;1.60;;;;;;;17.79;81.95;98645.41;5084854;28;20020;-64
2023/09/22 01:00:38;;;;;;;2.58;2.22;;;;;;;17.73;82.28;98645.81;5085282;28;20020;-64
2023/09/22 01:03:04;;;;;;;5.45;2.00;;;;;;;17.76;82.25;98653.47;5085086;28;20029;-65
2023/09/22 01:05:32;;;;;;;2.45;1.45;;;;;;;17.76;82.48;98650.84;5085283;28;20047;-65
2023/09/22 01:07:58;;;;;;;2.78;1.55;;;;;;;17.73;82.74;98643.19;5085404;28;20052;-65
2023/09/22 01:10:23;;;;;;;2.55;2.35;;;;;;;17.71;82.61;98639.81;5085144;28;20032;-65
2023/09/22 01:12:51;;;;;;;3.47;2.38;;;;;;;17.75;82.72;98643.09;5084937;28;20073;-64
2023/09/22 01:15:16;;;;;;;3.25;1.83;;;;;;;17.80;82.44;98639.19;5085151;28;20027;-65
2023/09/22 01:17:42;;;;;;;1.52;1.40;;;;;;;17.77;82.51;98634.16;5066729;28;20029;-65
2023/09/22 01:20:10;;;;;;;2.35;1.77;;;;;;;17.78;82.39;98641.06;5084858;28;20052;-65
2023/09/22 01:22:35;;;;;;;1.60;1.33;;;;;;;17.73;82.81;98630.06;5085084;28;20115;-64
2023/09/22 01:25:01;;;;;;;4.75;1.58;;;;;;;17.74;82.68;98637.00;5084754;28;20024;-65
2023/09/22 01:27:26;;;;;;;2.22;1.45;;;;;;;17.70;82.89;98633.72;5085006;28;20042;-65
2023/09/22 01:29:51;;;;;;;3.95;1.85;;;;;;;17.73;82.63;98635.31;5085122;28;20358;-65
2023/09/22 01:32:17;;;;;;;11.25;2.75;;;;;;;17.68;82.87;98626.91;5084660;28;20028;-64
2023/09/22 01:34:42;;;;;;;7.03;2.65;;;;;;;17.65;83.06;98627.94;5084910;28;20372;-64
2023/09/22 01:37:08;;;;;;;4.55;2.10;;;;;;;17.63;83.04;98618.50;5084582;28;20031;-64
2023/09/22 01:39:34;;;;;;;4.70;1.83;;;;;;;17.66;83.03;98634.03;5084867;28;20063;-64
2023/09/22 01:41:59;;;;;;;7.35;2.00;;;;;;;17.68;83.03;98632.16;5084671;28;20159;-64
2023/09/22 01:44:25;;;;;;;1.90;1.65;;;;;;;17.70;82.67;98636.34;5084297;28;20024;-64
2023/09/22 01:46:50;;;;;;;5.63;1.90;;;;;;;17.76;82.37;98637.75;5066418;28;20017;-64
2023/09/22 01:49:16;;;;;;;2.38;1.95;;;;;;;17.76;82.69;98639.50;5066661;28;20028;-64
2023/09/22 01:51:42;;;;;;;2.88;2.45;;;;;;;17.76;82.64;98642.13;5084693;28;20020;-64
2023/09/22 01:54:07;;;;;;;2.67;2.22;;;;;;;17.79;82.53;98649.81;5084649;28;20036;-65
2023/09/22 01:56:33;;;;;;;3.33;1.90;;;;;;;17.79;82.23;98641.94;5084579;28;20024;-64
2023/09/22 01:58:59;;;;;;;5.05;2.42;;;;;;;17.77;82.22;98647.28;5084896;28;20032;-64
2023/09/22 02:01:25;;;;;;;2.42;1.60;;;;;;;17.82;82.29;98639.94;5084505;28;20028;-63
2023/09/22 02:03:52;;;;;;;2.75;1.95;;;;;;;17.75;82.42;98643.91;5084398;28;20052;-64
2023/09/22 02:06:17;;;;;;;3.17;2.03;;;;;;;17.77;82.26;98642.03;5084782;28;20024;-64
2023/09/22 02:08:43;;;;;;;4.65;1.95;;;;;;;17.70;82.53;98619.75;5084983;28;20032;-66
2023/09/22 02:11:11;;;;;;;4.07;2.65;;;;;;;17.73;82.65;98618.72;5087134;28;20028;-64
2023/09/22 02:13:37;;;;;;;2.03;1.52;;;;;;;17.68;82.90;98616.41;5088748;28;20029;-64
2023/09/22 02:16:03;;;;;;;2.50;1.83;;;;;;;17.68;82.91;98619.84;5089017;28;20031;-64
2023/09/22 02:18:29;;;;;;;3.65;2.38;;;;;;;17.75;82.42;98624.72;5088362;28;20017;-65
2023/09/22 02:20:54;;;;;;;1.02;0.93;;;;;;;17.73;82.73;98619.56;5088424;28;20063;-64
2023/09/22 02:23:19;;;;;;;2.40;1.75;;;;;;;17.68;83.28;98622.47;5088563;28;20070;-64
2023/09/22 02:25:45;;;;;;;2.80;2.03;;;;;;;17.64;83.28;98609.66;5088497;28;20020;-64
2023/09/22 02:28:10;;;;;;;4.72;1.92;;;;;;;17.65;83.32;98622.69;5088431;28;20021;-63
2023/09/22 02:30:37;;;;;;;6.18;2.15;;;;;;;17.60;83.33;98614.31;5088403;28;20044;-64
2023/09/22 02:33:03;;;;;;;3.05;2.10;;;;;;;17.68;82.94;98613.78;5088114;28;20024;-64
2023/09/22 02:35:28;;;;;;;2.20;1.65;;;;;;;17.68;82.96;98605.91;5088386;28;20029;-64
2023/09/22 02:37:54;;;;;;;1.92;1.52;;;;;;;17.68;82.98;98593.63;5088110;28;20029;-65
2023/09/22 02:40:19;;;;;;;2.03;1.85;;;;;;;17.70;82.97;98588.25;5088266;28;20025;-65
2023/09/22 02:42:45;;;;;;;2.75;1.88;;;;;;;17.70;83.05;98594.34;5088293;28;20502;-65
2023/09/22 02:45:11;;;;;;;1.98;1.52;;;;;;;17.72;82.94;98583.75;5088269;28;20078;-64
2023/09/22 02:47:40;;;;;;;3.40;1.83;;;;;;;17.71;83.21;98568.97;5069857;28;20028;-64
2023/09/22 02:50:09;;;;;;;3.40;1.58;;;;;;;17.73;83.01;98568.88;5088199;28;20020;-64
2023/09/22 02:52:35;;;;;;;2.03;1.52;;;;;;;17.65;83.48;98561.50;5088115;28;20050;-64
2023/09/22 02:55:00;;;;;;;3.50;2.05;;;;;;;17.66;83.59;98560.56;5087947;28;20025;-65
2023/09/22 02:57:26;;;;;;;3.50;2.25;;;;;;;17.64;83.48;98565.91;5087818;28;20021;-65
2023/09/22 02:59:53;;;;;;;4.93;2.90;;;;;;;17.62;83.63;98551.22;5088058;28;20026;-64
2023/09/22 03:02:19;;;;;;;2.60;2.00;;;;;;;17.63;83.82;98539.78;5087746;28;20054;-65
2023/09/22 03:04:45;;;;;;;2.10;1.88;;;;;;;17.61;83.72;98536.41;5087853;28;20024;-64
2023/09/22 03:07:10;;;;;;;3.22;2.08;;;;;;;17.53;84.08;98537.78;5087737;28;20055;-65
2023/09/22 03:09:36;;;;;;;3.25;1.98;;;;;;;17.53;84.19;98540.41;5087821;28;20032;-65
2023/09/22 03:12:02;;;;;;;3.58;1.95;;;;;;;17.51;84.63;98526.53;5087666;28;20046;-65
2023/09/22 03:14:27;;;;;;;1.80;1.70;;;;;;;17.50;84.44;98516.16;5087472;28;20032;-65
2023/09/22 03:16:53;;;;;;;1.92;1.33;;;;;;;17.50;84.57;98524.03;5087459;28;20024;-65
2023/09/22 03:19:19;;;;;;;3.47;1.75;;;;;;;17.44;84.45;98514.81;5070305;28;20051;-64
2023/09/22 03:21:44;;;;;;;2.15;1.60;;;;;;;17.51;84.79;98505.56;5087111;28;20103;-64
2023/09/22 03:24:10;;;;;;;2.20;1.65;;;;;;;17.54;84.88;98510.59;5087476;28;20024;-64
2023/09/22 03:26:35;;;;;;;2.40;1.83;;;;;;;17.53;84.67;98506.31;5087632;28;20074;-64
2023/09/22 03:29:01;;;;;;;3.53;1.95;;;;;;;17.53;84.75;98498.44;5087260;28;20020;-63
2023/09/22 03:31:26;;;;;;;2.25;1.50;;;;;;;17.57;84.82;98507.75;5087220;28;20461;-67
2023/09/22 03:33:51;;;;;;;2.72;1.90;;;;;;;17.49;84.91;98496.97;5087202;28;20033;-65
2023/09/22 03:36:20;;;;;;;4.55;1.83;;;;;;;17.49;85.09;98491.72;5087204;28;20025;-64
2023/09/22 03:38:47;;;;;;;1.67;1.48;;;;;;;17.53;84.90;98503.69;5087117;28;20447;-65
2023/09/22 03:41:14;;;;;;;1.60;1.50;;;;;;;17.44;84.89;98494.63;5087049;28;20027;-65
2023/09/22 03:43:40;;;;;;;3.28;1.95;;;;;;;17.47;85.12;98493.59;5087026;28;20127;-64
2023/09/22 03:46:05;;;;;;;3.83;1.92;;;;;;;17.49;84.97;98499.59;5085726;28;20021;-64
2023/09/22 03:48:30;;;;;;;3.47;1.85;;;;;;;17.49;85.24;98496.97;5086809;28;20111;-65
2023/09/22 03:50:56;;;;;;;2.28;1.75;;;;;;;17.44;85.38;98491.19;5086799;28;20534;-65
2023/09/22 03:53:22;;;;;;;1.02;1.02;;;;;;;17.44;85.52;98480.69;5087010;28;20020;-65
2023/09/22 03:55:48;;;;;;;4.10;1.90;;;;;;;17.49;85.57;98491.72;5068885;28;20058;-65
2023/09/22 03:58:14;;;;;;;1.95;1.63;;;;;;;17.50;85.39;98485.53;5086836;28;20029;-65
2023/09/22 04:00:40;;;;;;;3.40;2.40;;;;;;;17.52;85.40;98482.78;5068599;28;20027;-65
2023/09/22 04:03:07;;;;;;;3.38;1.95;;;;;;;17.52;85.42;98490.66;5084997;28;20020;-65
2023/09/22 04:05:33;;;;;;;1.02;0.93;;;;;;;17.49;85.32;98491.72;5086595;28;20104;-65
2023/09/22 04:07:59;;;;;;;2.20;1.90;;;;;;;17.52;85.09;98501.16;5086709;28;20039;-65
2023/09/22 04:10:24;;;;;;;3.25;2.45;;;;;;;17.44;85.92;98510.38;5086453;28;20028;-65
2023/09/22 04:12:52;;;;;;;2.00;1.45;;;;;;;17.48;85.56;98500.53;5086434;28;20062;-65
2023/09/22 04:15:18;;;;;;;2.45;1.75;;;;;;;17.57;85.18;98499.06;5086428;28;20117;-65
2023/09/22 04:17:46;;;;;;;2.28;1.98;;;;;;;17.54;85.72;98494.84;5086160;28;20025;-64
2023/09/22 04:20:12;;;;;;;3.08;2.38;;;;;;;17.57;85.21;98497.25;5086191;28;20101;-65
2023/09/22 04:22:38;;;;;;;5.65;2.28;;;;;;;17.49;85.84;98478.59;5086056;28;20241;-65
2023/09/22 04:25:11;;;;;;;4.68;2.03;;;;;;;17.53;85.52;98480.06;5068151;28;20024;-65
2023/09/22 04:27:44;;;;;;;2.22;1.58;;;;;;;17.55;85.43;98487.84;5086324;28;20025;-65
2023/09/22 04:30:16;;;;;;;3.05;2.22;;;;;;;17.52;85.22;98486.28;5068377;28;20035;-65
2023/09/22 04:32:45;;;;;;;2.35;1.50;;;;;;;17.56;85.20;98479.84;5085327;28;20048;-65
2023/09/22 04:35:11;;;;;;;2.72;2.03;;;;;;;17.53;85.05;98481.84;5086009;28;20043;-75
2023/09/22 04:37:37;;;;;;;2.08;1.83;;;;;;;17.43;85.39;98466.72;5068098;28;20020;-74
2023/09/22 04:40:21;;;;;;;4.55;1.98;;;;;;;17.53;84.91;98482.69;5085795;28;20020;-72
2023/09/22 04:42:46;;;;;;;2.72;1.77;;;;;;;17.50;85.41;98476.81;5085762;28;20025;-67
2023/09/22 04:45:12;;;;;;;3.83;2.10;;;;;;;17.46;85.13;98478.78;5067728;28;20042;-68
2023/09/22 04:47:37;;;;;;;2.10;1.90;;;;;;;17.41;85.22;98479.09;5085536;28;20020;-68
2023/09/22 04:50:03;;;;;;;3.22;2.05;;;;;;;17.49;85.16;98496.97;5085879;28;20040;-69
2023/09/22 04:52:28;;;;;;;1.98;1.40;;;;;;;17.49;84.96;98483.84;5085701;28;20016;-65
2023/09/22 04:54:54;;;;;;;3.40;3.05;;;;;;;17.47;85.17;98490.97;5085427;28;20036;-65
2023/09/22 04:57:19;;;;;;;2.22;1.92;;;;;;;17.41;85.16;98468.63;5085763;28;20025;-65
2023/09/22 04:59:46;;;;;;;2.28;1.80;;;;;;;17.41;85.41;98489.59;5085676;28;20599;-73
2023/09/22 05:02:11;;;;;;;4.97;2.25;;;;;;;17.40;85.62;98471.34;5085409;28;20369;-67
2023/09/22 05:04:37;;;;;;;2.72;1.85;;;;;;;17.26;85.60;98461.78;5085465;28;20453;-66
2023/09/22 05:07:02;;;;;;;4.28;2.20;;;;;;;17.44;85.62;98475.44;5084216;28;20022;-66
2023/09/22 05:09:27;;;;;;;8.90;1.73;;;;;;;17.44;85.46;98488.56;5085613;28;20032;-65
2023/09/22 05:11:53;;;;;;;2.65;1.52;;;;;;;17.41;85.52;98494.84;5085220;28;20073;-66
2023/09/22 05:14:18;;;;;;;1.90;1.67;;;;;;;17.41;85.41;98488.78;5085199;28;20024;-65
2023/09/22 05:16:44;;;;;;;3.60;2.55;;;;;;;17.41;85.50;98499.28;5084970;28;20025;-65
2023/09/22 05:19:10;;;;;;;2.28;1.73;;;;;;;17.40;85.58;98501.03;5067120;28;20041;-65
2023/09/22 05:21:35;;;;;;;2.15;1.58;;;;;;;17.37;85.59;98495.16;5085293;28;20043;-65
2023/09/22 05:24:01;;;;;;;4.53;3.25;;;;;;;17.30;85.76;98500.81;5085297;28;20016;-65
2023/09/22 05:26:26;;;;;;;3.92;1.92;;;;;;;17.31;85.56;98499.91;5085533;28;20050;-65
2023/09/22 05:28:51;;;;;;;2.45;1.98;;;;;;;17.35;85.95;98508.38;5085188;28;20024;-65
2023/09/22 05:31:18;;;;;;;5.95;2.17;;;;;;;17.33;85.89;98508.47;5085278;28;20026;-75
2023/09/22 05:33:44;;;;;;;2.53;2.17;;;;;;;17.36;85.56;98511.84;5085086;28;20451;-71
2023/09/22 05:36:09;;;;;;;3.13;2.55;;;;;;;17.38;85.68;98504.72;5085113;28;20020;-65
2023/09/22 05:38:35;;;;;;;2.53;2.00;;;;;;;17.39;85.81;98504.63;5085196;28;20024;-65
2023/09/22 05:41:01;;;;;;;3.22;2.53;;;;;;;17.40;85.49;98519.41;5084604;28;20036;-64
2023/09/22 05:43:27;;;;;;;4.90;2.83;;;;;;;17.43;85.22;98515.72;5084916;28;20028;-64
2023/09/22 05:45:54;;;;;;;3.42;2.30;;;;;;;17.44;85.52;98523.50;5088966;28;20051;-64
2023/09/22 05:48:20;;;;;;;5.40;2.15;;;;;;;17.45;85.48;98519.94;5089309;28;20017;-65
2023/09/22 05:50:57;;;;;;;2.45;2.15;;;;;;;17.44;85.52;98528.72;5089352;28;20028;-65
2023/09/22 05:53:26;;;;;;;2.50;1.77;;;;;;;17.43;85.55;98513.09;5089098;28;20084;-65
2023/09/22 05:56:06;;;;;;;4.20;2.75;;;;;;;17.48;85.22;98516.25;5089259;28;20021;-65
2023/09/22 05:58:32;;;;;;;10.90;2.10;;;;;;;17.45;85.45;98521.72;5089034;28;20035;-65
2023/09/22 06:00:58;;;;;;;4.15;1.98;;;;;;;17.41;85.41;98520.25;5089045;28;20055;-65
2023/09/22 06:03:24;;;;;;;2.53;2.03;;;;;;;17.41;85.39;98515.00;5088869;28;20021;-65
2023/09/22 06:05:49;;;;;;;3.70;2.30;;;;;;;17.43;85.33;98519.19;5070760;28;20087;-65
2023/09/22 06:08:15;;;;;;;3.35;2.38;;;;;;;17.45;85.24;98526.97;5088851;28;20025;-65
2023/09/22 06:10:42;;;;;;;2.88;2.05;;;;;;;17.41;85.04;98513.19;5088837;28;20051;-64
2023/09/22 06:13:09;;;;;;;2.70;2.08;;;;;;;17.37;85.00;98511.75;5088719;28;20036;-64
2023/09/22 06:15:34;;;;;;;6.53;2.55;;;;;;;17.33;85.39;98518.97;5088789;28;20024;-65
2023/09/22 06:18:00;;;;;;;5.88;2.60;;;;;;;17.30;85.49;98516.56;5088565;28;20051;-64
2023/09/22 06:20:25;;;;;;;4.45;2.45;;;;;;;17.32;85.16;98511.19;5088471;28;20044;-65
2023/09/22 06:22:52;;;;;;;3.22;2.45;;;;;;;17.28;85.75;98513.22;5088412;28;20027;-65
2023/09/22 06:25:18;;;;;;;2.08;1.85;;;;;;;17.26;85.70;98507.22;5088571;28;20024;-64
2023/09/22 06:27:44;;;;;;;3.88;2.15;;;;;;;17.28;85.50;98504.50;5053943;28;20021;-65
2023/09/22 06:30:12;;;;;;;2.92;1.77;;;;;;;17.33;85.37;98515.53;5088853;28;20074;-65
2023/09/22 06:32:42;;;;;;;3.95;2.35;;;;;;;17.22;85.86;98505.75;5088399;28;20036;-65
2023/09/22 06:35:11;;;;;;;5.18;1.80;;;;;;;17.22;86.24;98511.81;5088474;28;20464;-65
2023/09/22 06:37:38;;;;;;;3.42;2.47;;;;;;;17.23;86.16;98512.69;5070483;28;20024;-66
2023/09/22 06:40:11;;;;;;;5.05;2.47;;;;;;;17.21;86.24;98512.78;5088465;28;20024;-65
2023/09/22 06:42:41;;;;;;;3.00;2.13;;;;;;;17.24;85.88;98508.28;5088438;28;20047;-65
2023/09/22 06:45:09;;;;;;;2.92;1.80;;;;;;;17.28;85.64;98512.38;5088350;28;20459;-64
2023/09/22 06:47:35;;;;;;;3.05;2.28;;;;;;;17.26;85.37;98507.22;5088237;28;20048;-65
2023/09/22 06:50:05;;;;;;;2.03;1.58;;;;;;;17.24;85.07;98509.09;5070307;28;20119;-65
2023/09/22 06:52:31;;;;;;;6.25;2.05;;;;;;;17.30;84.85;98507.88;5088220;28;20069;-66
2023/09/22 06:54:56;;;;;;;2.88;1.45;;;;;;;17.26;85.16;98496.72;5088020;28;20044;-65
2023/09/22 06:57:23;;;;;;;2.88;1.40;;;;;;;17.29;84.87;98498.28;5085947;28;20028;-65
2023/09/22 06:59:50;;;;;;;3.22;1.67;;;;;;;17.27;84.78;98493.16;5070045;28;20028;-66
2023/09/22 07:02:16;;;;;;;3.35;1.77;;;;;;;17.25;84.67;98479.34;5087873;28;20031;-65
2023/09/22 07:04:41;;;;;;;3.53;1.65;;;;;;;17.23;84.85;98481.22;5087810;28;20024;-66
2023/09/22 07:07:06;;;;;;;1.83;1.45;;;;;;;17.18;84.79;98476.28;5087940;28;20020;-66
2023/09/22 07:09:32;;;;;;;2.47;1.40;;;;;;;17.16;84.86;98465.03;5088023;28;20029;-66
2023/09/22 07:11:57;;;;;;;1.60;1.42;;;;;;;17.15;84.75;98484.34;5087839;28;20223;-66
2023/09/22 07:14:23;;;;;;;3.95;1.83;;;;;;;17.13;84.82;98491.47;5087786;28;20043;-67
2023/09/22 07:16:49;;;;;;;3.47;2.30;;;;;;;17.04;85.36;98477.16;5086131;28;20097;-67
2023/09/22 07:19:14;;;;;;;1.88;1.70;;;;;;;17.03;85.39;98485.97;5089950;28;20056;-69
2023/09/22 07:21:39;;;;;;;3.30;1.75;;;;;;;17.05;85.71;98489.31;5108146;28;20107;-68
2023/09/22 07:24:05;;;;;;;1.38;0.95;;;;;;;17.03;85.59;98496.44;5108168;28;20452;-68
2023/09/22 07:26:31;;;;;;;3.10;1.42;;;;;;;16.95;86.08;98496.94;5107933;28;20361;-69
2023/09/22 07:28:58;;;;;;;2.70;1.33;;;;;;;16.95;86.34;98509.22;5107789;28;20024;-70
2023/09/22 07:31:30;;;;;;;1.15;0.98;;;;;;;16.90;87.04;98501.66;5107709;28;20050;-71
2023/09/22 07:33:56;;;;;;;3.80;1.08;;;;;;;16.83;87.35;98501.22;5107567;28;20052;-71
2023/09/22 07:36:21;;;;;;;2.08;1.27;;;;;;;16.82;87.99;98499.53;5089661;28;20035;-71
2023/09/22 07:38:47;;;;;;;1.70;1.00;;;;;;;16.76;88.29;98488.63;5107526;28;20051;-70
2023/09/22 07:41:14;;;;;;;1.25;0.95;;;;;;;16.73;89.26;98497.50;5107735;28;20096;-70
2023/09/22 07:43:39;;;;;;;2.05;0.80;;;;;;;16.69;89.59;98498.66;5107639;28;20418;-70
2023/09/22 07:46:06;;;;;;;1.90;1.17;;;;;;;16.69;90.06;98494.25;5107544;28;20024;-70
2023/09/22 07:48:33;;;;;;;1.20;0.88;;;;;;;16.69;91.13;98496.88;5107295;28;20034;-71
2023/09/22 07:51:00;;;;;;;1.70;0.80;;;;;;;16.71;91.40;98496.75;5089222;28;20446;-74
2023/09/22 07:53:25;;;;;;;2.40;0.95;;;;;;;16.72;91.76;98493.22;5107283;28;20023;-67
2023/09/22 07:55:55;;;;;;;1.40;1.00;;;;;;;16.70;92.49;98498.56;5107472;28;20030;-67
2023/09/22 07:58:22;;;;;;;0.88;0.73;;;;;;;16.70;92.67;98497.72;5107197;28;20016;-67
2023/09/22 08:00:47;;;;;;;1.63;0.85;;;;;;;16.66;93.16;98493.63;5107477;28;20020;-69
2023/09/22 08:03:13;;;;;;;1.67;0.93;;;;;;;16.60;93.56;98494.84;5107113;28;20035;-69
2023/09/22 08:05:39;;;;;;;2.15;0.77;;;;;;;16.56;93.68;98499.47;5106363;28;20468;-68
2023/09/22 08:08:05;;;;;;;0.95;0.70;;;;;;;16.54;94.23;98509.19;5106213;28;20047;-68
2023/09/22 08:10:31;;;;;;;0.77;0.70;;;;;;;16.53;94.34;98515.38;5107069;28;20085;-68
2023/09/22 08:12:56;;;;;;;2.17;0.77;;;;;;;16.46;95.15;98514.91;5106914;28;20031;-68
2023/09/22 08:15:22;;;;;;;0.47;0.47;;;;;;;16.43;95.65;98519.50;5106922;28;20054;-67
2023/09/22 08:17:49;;;;;;;0.75;0.50;;;;;;;16.43;95.94;98522.13;5106604;28;20034;-67
2023/09/22 08:20:15;;;;;;;1.08;0.85;;;;;;;16.35;96.24;98518.22;5094355;28;20044;-68
2023/09/22 08:22:42;;;;;;;1.05;0.70;;;;;;;16.39;96.47;98523.25;5086803;28;20043;-68
2023/09/22 08:25:08;;;;;;;6.25;1.15;;;;;;;16.34;96.50;98519.13;5068470;28;20028;-68
2023/09/22 08:27:37;;;;;;;1.75;0.70;;;;;;;16.31;96.45;98508.03;5086631;28;20016;-68
2023/09/22 08:30:11;;;;;;;0.20;0.20;;;;;;;16.28;96.95;98519.53;5086506;28;20027;-68
2023/09/22 08:32:41;;;;;;;0.20;0.20;;;;;;;16.28;96.85;98516.09;5086344;28;20024;-68
2023/09/22 08:35:11;;;;;;;0.20;0.20;;;;;;;16.17;97.35;98514.13;5086367;28;20025;-67
2023/09/22 08:37:40;;;;;;;0.20;0.20;;;;;;;16.07;98.10;98525.16;5086311;28;20051;-67
2023/09/22 08:40:08;;;;;;;0.20;0.20;;;;;;;16.02;98.24;98526.38;5086317;28;20013;-68
2023/09/22 08:42:35;;;;;;;0.20;0.20;;;;;;;15.95;99.00;98523.25;5084910;28;20135;-67
2023/09/22 08:45:00;;;;;;;0.20;0.20;;;;;;;15.95;99.27;98531.97;5086289;28;20021;-68
2023/09/22 08:47:26;;;;;;;0.20;0.20;;;;;;;15.93;99.46;98532.97;5086047;28;20051;-69
2023/09/22 08:49:52;;;;;;;0.20;0.20;;;;;;;15.91;99.68;98535.69;5086141;28;20104;-69
2023/09/22 08:52:20;;;;;;;0.20;0.20;;;;;;;15.92;100.00;98533.94;5086046;28;20028;-69
2023/09/22 08:54:46;;;;;;;0.20;0.20;;;;;;;15.98;100.00;98536.19;5084439;28;20020;-69
2023/09/22 08:57:14;;;;;;;0.20;0.20;;;;;;;16.02;100.00;98537.72;5086279;28;20098;-68
2023/09/22 08:59:41;;;;;;;0.20;0.20;;;;;;;16.12;100.00;98537.13;5086071;28;20028;-69
2023/09/22 09:02:08;;;;;;;0.20;0.20;;;;;;;16.23;100.00;98551.22;5085714;28;20036;-69
2023/09/22 09:04:39;;;;;;;0.20;0.20;;;;;;;16.22;100.00;98530.38;5084498;28;20017;-69
2023/09/22 09:07:05;;;;;;;0.20;0.20;;;;;;;16.28;100.00;98535.22;5086037;28;20024;-69
2023/09/22 09:09:42;;;;;;;0.20;0.20;;;;;;;16.40;100.00;98535.41;5085685;28;20103;-70
2023/09/22 09:12:10;;;;;;;0.20;0.20;;;;;;;16.48;100.00;98541.84;5085723;28;20035;-70
2023/09/22 09:14:41;;;;;;;0.20;0.20;;;;;;;16.52;100.00;98545.09;5085626;28;20027;-70
2023/09/22 09:17:20;;;;;;;0.30;0.30;;;;;;;16.52;100.00;98545.09;5067235;28;20028;-69
2023/09/22 09:19:55;;;;;;;0.20;0.20;;;;;;;16.43;100.00;98549.16;5085105;28;20053;-68
2023/09/22 09:22:21;;;;;;;0.20;0.20;;;;;;;16.37;100.00;98551.31;5085606;28;20040;-69
2023/09/22 09:24:47;;;;;;;0.20;0.20;;;;;;;16.35;100.00;98564.50;5085566;28;20027;-69
2023/09/22 09:27:21;;;;;;;0.20;0.20;;;;;;;16.31;100.00;98553.38;5085736;28;20021;-69
2023/09/22 09:29:50;;;;;;;0.20;0.20;;;;;;;16.14;100.00;98558.81;5085639;28;20031;-68
2023/09/22 09:32:27;;;;;;;0.20;0.20;;;;;;;16.09;100.00;98567.78;5085445;28;20536;-68
2023/09/22 09:34:53;;;;;;;0.20;0.20;;;;;;;16.12;100.00;98573.78;5085422;28;20076;-69
2023/09/22 09:37:19;;;;;;;0.20;0.20;;;;;;;16.13;100.00;98575.47;5085512;28;20028;-69
2023/09/22 09:39:56;;;;;;;0.20;0.20;;;;;;;16.10;100.00;98577.31;5085530;28;20104;-70
2023/09/22 09:42:23;;;;;;;0.20;0.20;;;;;;;16.08;100.00;98581.81;5067347;28;20025;-68
2023/09/22 09:44:51;;;;;;;0.20;0.20;;;;;;;16.02;100.00;98578.72;5085315;28;20020;-71
2023/09/22 09:47:40;;;;;;;0.20;0.20;;;;;;;16.02;100.00;98590.06;5085229;28;20028;-70
2023/09/22 09:50:09;;;;;;;0.20;0.20;;;;;;;15.95;100.00;98589.53;5085359;28;20025;-70
2023/09/22 09:52:48;;;;;;;0.20;0.20;;;;;;;15.90;100.00;98588.13;5067313;28;20427;-70
2023/09/22 09:55:14;;;;;;;0.20;0.20;;;;;;;15.89;100.00;98597.75;5085146;28;20028;-70
2023/09/22 09:57:44;;;;;;;0.20;0.20;;;;;;;15.92;100.00;98581.03;5067096;28;20070;-70
2023/09/22 10:00:19;;;;;;;0.20;0.20;;;;;;;16.01;100.00;98590.97;5085188;28;20020;-70
2023/09/22 10:02:46;;;;;;;0.20;0.20;;;;;;;16.06;100.00;98591.53;5084991;28;20035;-71
2023/09/22 10:05:19;;;;;;;0.20;0.20;;;;;;;15.96;100.00;98593.84;5085208;28;20048;-71
2023/09/22 10:07:46;;;;;;;0.20;0.20;;;;;;;15.85;100.00;98594.47;5085348;28;20123;-70
2023/09/22 10:10:17;;;;;;;0.20;0.20;;;;;;;15.88;100.00;98605.69;5085076;28;20032;-69
2023/09/22 10:12:44;;;;;;;0.20;0.20;;;;;;;15.83;100.00;98601.56;5085246;28;20542;-70
2023/09/22 10:15:11;;;;;;;0.20;0.20;;;;;;;15.84;100.00;98592.81;5084988;28;20021;-70
2023/09/22 10:17:36;;;;;;;0.20;0.20;;;;;;;15.91;100.00;98588.03;5084731;28;20028;-69
2023/09/22 10:20:11;;;;;;;0.20;0.20;;;;;;;15.96;100.00;98585.13;5085018;28;20045;-70
2023/09/22 10:22:40;;;;;;;0.20;0.20;;;;;;;16.06;100.00;98596.78;5067091;28;20257;-70
2023/09/22 10:25:12;;;;;;;0.20;0.20;;;;;;;16.06;100.00;98603.78;5084851;28;20121;-71
2023/09/22 10:27:53;;;;;;;0.40;0.40;;;;;;;16.03;100.00;98611.81;5085030;28;20020;-70
2023/09/22 10:30:19;;;;;;;0.20;0.20;;;;;;;15.96;100.00;98612.16;5085010;28;20051;-71
2023/09/22 10:32:45;;;;;;;0.20;0.20;;;;;;;15.94;100.00;98613.19;5069862;28;20077;-70
2023/09/22 10:35:12;;;;;;;0.20;0.20;;;;;;;15.92;100.00;98609.81;5088595;28;20025;-70
2023/09/22 10:38:00;;;;;;;0.20;0.20;;;;;;;15.87;100.00;98612.69;5088740;28;20025;-70
2023/09/22 10:40:25;;;;;;;0.20;0.20;;;;;;;15.84;100.00;98624.19;5070598;28;20032;-70
2023/09/22 10:42:51;;;;;;;0.20;0.20;;;;;;;15.81;100.00;98619.16;5088550;28;20029;-70
2023/09/22 10:45:19;;;;;;;0.20;0.20;;;;;;;15.76;100.00;98625.56;5088428;28;20028;-70
2023/09/22 10:47:57;;;;;;;0.20;0.20;;;;;;;15.70;100.00;98618.94;5088174;28;20021;-70
2023/09/22 10:50:31;;;;;;;0.20;0.20;;;;;;;15.72;100.00;98623.13;5088471;28;20035;-69
2023/09/22 10:53:07;;;;;;;0.20;0.20;;;;;;;15.60;100.00;98616.88;5070277;28;20020;-69
2023/09/22 10:55:38;;;;;;;0.20;0.20;;;;;;;15.56;100.00;98620.56;5070166;28;20056;-70
2023/09/22 10:58:11;;;;;;;0.20;0.20;;;;;;;15.59;100.00;98630.03;5088266;28;20052;-70
2023/09/22 11:00:45;;;;;;;0.20;0.20;;;;;;;15.60;100.00;98627.31;5088307;28;20032;-70
2023/09/22 11:03:12;;;;;;;0.20;0.20;;;;;;;15.63;100.00;98626.28;5088032;28;20024;-75
2023/09/22 11:05:39;;;;;;;0.20;0.20;;;;;;;15.67;100.00;98645.28;5088261;28;20020;-71
2023/09/22 11:08:15;;;;;;;0.20;0.20;;;;;;;15.63;100.00;98647.22;5088114;28;20019;-70
2023/09/22 11:10:51;;;;;;;0.20;0.20;;;;;;;15.67;100.00;98653.94;5088113;28;20032;-70
2023/09/22 11:13:18;;;;;;;0.20;0.20;;;;;;;15.61;100.00;98662.16;5087942;28;20032;-69
2023/09/22 11:15:53;;;;;;;0.20;0.20;;;;;;;15.58;100.00;98665.78;5088070;28;20024;-69
2023/09/22 11:18:23;;;;;;;0.20;0.20;;;;;;;15.60;100.00;98663.94;5087727;28;20325;-70
2023/09/22 11:20:48;;;;;;;0.20;0.20;;;;;;;15.65;100.00;98671.53;5087818;28;20056;-70
2023/09/22 11:23:15;;;;;;;0.20;0.20;;;;;;;15.73;100.00;98679.75;5087966;28;20028;-71
2023/09/22 11:25:40;;;;;;;0.20;0.20;;;;;;;15.73;100.00;98682.38;5087853;28;20043;-70
2023/09/22 11:28:06;;;;;;;0.20;0.20;;;;;;;15.79;100.00;98693.41;5087762;28;20016;-70
2023/09/22 11:30:33;;;;;;;0.20;0.20;;;;;;;15.78;100.00;98703.06;5069686;28;20031;-71
2023/09/22 11:32:59;;;;;;;0.20;0.20;;;;;;;15.79;100.00;98703.88;5087391;28;20030;-70